UK Observations

EGAA 220520Z 07003KT 8000 FEW008 SCT030 BKN045 15/15 Q1016 EGAC 220520Z 15003KT 3500 BR FEW001 BKN003 15/15 Q1016 EGAE 220520Z 19006KT 9999 FEW007 SCT048 17/16 Q1015 EGBB 220520Z 14004KT 0100 R15/0700 FG VV/// 17/17 Q1019 EGCC 220520Z VRB02KT 7000 FEW005 16/16 Q1019 TEMPO 4000 BR EGFF 220520Z AUTO 10007KT 0150 R12/0350 FG VV/// 16/16 Q1019 EGGD 220520Z 12004KT 9999 VCFG NSC 16/15 Q1019 EGGP 220520Z 11004KT 9000 SCT046 17/16 Q1019 EGGW 220520Z AUTO 15004KT 0500 R26/1200 FG OVC002 16/16 Q1020 EGHH 220520Z 09005KT 0400 R08/0800 R26/0800 FG OVC002 16/16 Q1019 EGHI 220520Z VRB03KT 4000 -DZ HZ BKN006 16/15 Q1020 EGJB 220520Z 12009KT 9999 FEW003 18/17 Q1018 EGJJ 220520Z 11013KT 9999 FEW004 18/17 Q1018 NOSIG EGKB 220520Z 16005KT 4000 BR BKN010 16/16 Q1021 EGKK 220520Z VRB02KT 7000 3000W -RADZ BKN010 OVC015 17/16 Q1020 EGLC 220520Z AUTO 17005KT 130V200 9999 BKN014 OVC032 18/16 Q1020 EGLL 220520Z AUTO 15004KT 6000 BKN007 OVC012 17/16 Q1020 TEMPO SCT007 BKN010 EGMC 220520Z 19002KT 9999 FEW019 16/14 Q1020 EGMD 220520Z AUTO 34003KT 1300 BR FEW001/// 14/14 Q1020 EGNH 220520Z 10006KT 6000 SCT040 16/16 Q1019 EGNJ 220520Z 20006KT 5000 BR BKN016 17/16 Q1020 EGNM 220520Z 00000KT 0700 R14/P1500 FG BKN001 15/15 Q1019 EGNS 220520Z 14005KT 1200 BR FEW000 BKN001 OVC002 15/14 Q1018 TEMPO 0600 EGNT 220520Z 00000KT 4000 BR BKN002 14/14 Q1019 EGNV 220520Z 20005KT 2500 HZ SCT005 BKN007 16/15 Q1019 EGNX 220520Z 12003KT 0550 R27/0700 FG OVC001 16/16 Q1020 EGPA 220520Z 11008KT 9999 FEW018 11/10 Q1022 EGPB 220520Z 03005KT 9999 FEW007 09/08 Q1023 NOSIG EGPC 220520Z AUTO 11015KT 9999 OVC035/// 13/11 Q1021 EGPD 220520Z AUTO 12007KT 9999 OVC004 14/13 Q1021 NOSIG EGPE 220520Z 07006KT 9999 BKN037 13/12 Q1019 EGPF 220520Z AUTO 08009KT 9999 OVC013 15/13 Q1018 EGPH 220520Z 07006KT 4000 BR OVC002 14/13 Q1019 EGPL 220520Z AUTO 11011KT 4100 -RA BKN002/// BKN007/// 14/14 Q1016 EGPM 220520Z VRB01KT CAVOK 07/07 Q1023 NOSIG EGPN 220520Z 08007KT 6000 BKN006 15/14 Q1019 EGPO 220520Z 13008KT 9999 -RA FEW006 BKN030 14/14 Q1017 EGSH 220520Z 07002KT 7000 NSC 14/13 Q1020 NOSIG EGSS 220520Z AUTO 15005KT 7000 OVC013 16/15 Q1020 EGTE 220520Z 09001KT 5000 VCFG BKN003 15/15 Q1019 EGUL 220509Z AUTO 14004KT 9999 SCT026 OVC034 16/16 A3012 RMK AO2 SLP203 EGVA 220505Z AUTO 18004KT 0800 R09/0750 FG VV001 17/17 A3011 RMK AO2 VIS 0800V1600 SLP197 EGVA 220511Z AUTO 18004KT 0800 R09/0700 FG VV002 17/17 A3011 RMK AO2 SLP197 EGVA 220514Z AUTO 17004KT 0800 R09/0750 FG VV002 17/17 A3011 RMK AO2 SLP197 EGVA 220518Z AUTO 16003KT 0800 R09/0700 FG VV002 17/17 A3011 RMK AO2 SLP197 EGVA 220521Z AUTO 15004KT 0800 R09/0750 FG VV002 17/17 A3011 RMK AO2 SLP197 EGVA 220523Z AUTO 14004KT 0800 R09/0700 FG VV002 17/16 A3011 RMK AO2 SLP197 KGNC 220515Z AUTO 00000KT 10SM SCT055 23/17 A3016 RMK AO2 T02250165 EGCN 220520Z 17003KT 6000 BKN015 OVC030 17/17 Q1020 EGNR 220520Z 13004KT 110V170 9999 VCFG FEW018 17/16 Q1019 EGTK 220520Z 17003KT 2500 OVC002 17/17 Q1019 EGAA 220450Z 07004KT 8000 FEW010 SCT035 BKN045 15/15 Q1016 EGAE 220450Z 00000KT 9999 FEW007 SCT048 17/17 Q1015 EGBB 220450Z 13005KT 0100 R15/0900 FG VV/// 17/17 Q1019 EGCC 220450Z AUTO VRB02KT 6000 FEW046 16/16 Q1019 TEMPO 4000 BR EGDM 220450Z AUTO 15006KT 1200 VV/// 16/16 Q1020 EGDR 220450Z 09015KT 0300 FG SCT000 BKN001 15/15 Q1017 RED EGDY 220450Z AUTO 10003KT 9999 FEW200/// 13/13 Q1019 EGFF 220450Z AUTO 09006KT 0100 R12/0325 FG VV/// 16/16 Q1019 EGGD 220450Z 12003KT 9999 MIFG NSC 16/15 Q1019 EGGP 220450Z 10005KT 9000 SCT049 17/16 Q1018 EGGW 220450Z AUTO 15005KT 0650 R26/P1500 FG VV/// 16/16 Q1020 EGHH 220450Z 09005KT 0400 FG OVC002 16/16 Q1019 EGHI 220450Z VRB03KT 4000 -DZ HZ BKN005 16/15 Q1020 EGJB 220450Z 09011KT 9999 FEW003 18/17 Q1018 EGJJ 220450Z 11012KT 9999 FEW035 17/16 Q1018 TEMPO 5000 BR EGKK 220450Z 12003KT 7000 FEW007 OVC014 17/16 Q1020 EGLC 220450Z AUTO 16004KT 130V190 9999 SCT006 BKN014 OVC019 18/17 Q1020 EGLL 220450Z AUTO 14004KT 5000 HZ OVC006 17/16 Q1020 NOSIG EGMC 220450Z 17003KT 9999 BKN019 17/14 Q1020 EGMD 220450Z AUTO 35003KT 1200 BR SCT001/// SCT026/// 14/14 Q1020 EGNJ 220450Z 20005KT 150V210 5000 BR BKN016 17/16 Q1020 EGNM 220450Z VRB01KT 0800 R14/P1500 FG VV/// 15/15 Q1019 EGNS 220450Z 18005KT 150V210 0350 FG BKN000 OVC001 15/14 Q1018 TEMPO 1200 EGNT 220450Z 00000KT 5000 BR BKN002 14/13 Q1019 EGNV 220450Z 18003KT 2500 HZ FEW005 BKN006 16/15 Q1019 EGNX 220450Z VRB03KT 0900 R27/P1500 FG OVC001 16/16 Q1020 EGOS 220450Z AUTO 10003KT 8000 BR OVC060/// 16/16 Q1019 EGOV 220450Z AUTO 18005KT 7000 BR OVC002/// 16/16 Q1018 EGPA 220450Z AUTO 11007KT 9999 NCD 11/10 Q1022 EGPB 220450Z AUTO 03005KT 9999 NCD 08/08 Q1023 EGPC 220450Z AUTO 11013KT 9999 FEW014/// BKN034/// 13/11 Q1021 EGPD 220450Z AUTO 12007KT 9999 OVC003 14/13 Q1021 NOSIG EGPE 220450Z VRB03KT 9999 BKN036 13/12 Q1019 EGPF 220450Z AUTO 07008KT 9999 OVC014 15/13 Q1018 EGPH 220450Z 07005KT 5000 BR OVC003 14/13 Q1019 EGPK 220450Z 10004KT 9999 FEW013 SCT025 16/14 Q1018 EGPL 220450Z AUTO 11011KT 3700 DZ BKN002/// 14/14 Q1016 EGPM 220450Z VRB01KT 9999 2500E MIFG FEW021 05/05 Q1023 NOSIG EGPO 220450Z AUTO 13008KT 9999 -RA FEW049/// 14/14 Q1017 EGPU 220450Z AUTO 15015KT 9000 OVC009/// 15/14 Q1015 EGQK 220450Z AUTO 09007KT 9999 BKN037/// 14/12 Q1019 EGQL 220450Z 09007KT 7000 BR OVC002 14/14 Q1019 AMB EGQM 220450Z AUTO 21002KT 9000 BR BKN046/// 13/13 Q1019 EGQS 220450Z 11010KT 9999 BKN037 BKN110 15/12 Q1019 BLU EGSH 220450Z 00000KT 7000 NSC 14/13 Q1020 NOSIG EGSS 220450Z AUTO 13005KT 7000 FEW005 BKN012 OVC037 16/15 Q1020 EGTE 220450Z 11004KT 5000 BCFG FEW002 14/14 Q1019 EGUB 220450Z 16005KT 4500 BR OVC003 17/17 Q1019 YLO2 EGUL 220501Z AUTO 14003KT 9999 BKN026 OVC034 16/16 A3012 RMK AO2 CIG 026V034 BKN V SCT CIG 026 RWY24 SLP203 EGUL 220458Z AUTO 14003KT 9999 SCT026 OVC034 16/16 A3012 RMK AO2 CIG 026 RWY24 SLP203 T01630163 EGUN 220458Z AUTO 14003KT 9999 OVC024 16/16 A3012 RMK AO2 SLP203 T01640164 EGVA 220503Z AUTO 17004KT 1200 R09/0800 BR VV001 17/17 A3011 RMK AO2 SLP197 EGVA 220458Z AUTO 17004KT 1600 R09/0800 BR VV001 17/17 A3011 RMK AO2 VIS 0800V1600 SLP197 EGVN 220450Z 00000KT 0200 FG OVC001 17/17 Q1019 RED BECMG 2000 BR BKN004 YLO2 EGVN 220450Z 00000KT 0200 FG OVC001 17/17 Q1019 BECMG 2000 BR BKN004 EGWU 220450Z AUTO 18005KT 9999 // OVC005/// 18/16 Q1020 EGXC 220450Z 12004KT 7000 HZ FEW012 BKN025 16/15 Q1020 WHT EGXT 220450Z AUTO 15003KT 4700 BR SCT006/// SCT018/// BKN028/// 16/15 Q1019 EGYD 220450Z AUTO 15004KT 3400 // FEW031/// BKN060/// 14/14 Q1020 GBYD 220500Z 30005KT 9999 SCT011 SCT110 1012 GBYD 220500Z 30005KT 9999 SCT011 SCT110 ///// Q1012 KGNC 220455Z AUTO 12003KT 10SM CLR 22/17 A3016 RMK AO2 T02230168 EGCN 220450Z 17003KT 5000 BR SCT016 BKN032 17/16 Q1020 EGDX 220450Z AUTO 08006KT 0250 FG VV/// 16/16 Q1018 EGOM 220450Z AUTO 05004KT 1100 OVC001/// 14/14 Q1019 EGOP 220450Z AUTO 11005KT 9999 // FEW028/// OVC060/// 16/16 Q1018 EGPI 220450Z AUTO 13013KT 100V160 9999 SCT004/// BKN032/// 15/15 Q1016 RERA EGUW 220450Z AUTO 15004KT 7000 HZ OVC031/// 16/14 Q1020 EGVO 220450Z 17005KT 0800 FG VV/// 16/16 Q1020 RED EGVP 220450Z 16005KT 0400 FG VV/// 16/16 Q1020 RED EGXE 220450Z 16005KT 0900 FG OVC001 16/16 Q1019 RED EGXS 220450Z AUTO 16005KT 5000 // SCT019/// BKN043/// 16/15 Q1019 EGXU 220450Z AUTO 12002KT 2600 // BKN002/// BKN013/// 16/16 Q1019 EGXV 220450Z AUTO 13001KT 1900 BR BKN005/// SCT012/// 16/16 Q1019 EGXW 220450Z 12004KT 5000 BR BKN031 16/15 Q1019 WHT EGXZ 220450Z AUTO 13005KT 1500 BR OVC002/// 16/16 Q1019 EGYM 220450Z 14004KT 9999 BKN030 16/14 Q1020 BLU